createdAt,value
2018-07-22T14:05:22.513Z,28.20
2018-07-22T14:07:49.987Z,27.60
2018-07-22T14:10:17.427Z,27.60
2018-07-22T14:15:12.351Z,27.50
2018-07-22T14:17:39.916Z,27.50
2018-07-22T14:22:43.973Z,27.60
2018-07-22T14:25:11.557Z,27.70
2018-07-22T14:27:39.023Z,28.10
2018-07-22T14:32:33.895Z,28.00
2018-07-22T14:35:01.362Z,28.00
2018-07-22T14:37:28.811Z,28.30
2018-07-22T14:39:56.336Z,28.40
2018-07-22T14:42:23.791Z,28.40
2018-07-22T14:44:51.244Z,28.40
2018-07-22T14:47:19.436Z,28.30
2018-07-22T14:49:46.951Z,28.40
2018-07-22T14:52:15.215Z,28.40
2018-07-22T14:57:10.251Z,28.40
2018-07-22T14:59:37.823Z,28.20
2018-07-22T15:04:32.763Z,28.10
2018-07-22T15:09:27.906Z,27.90
2018-07-22T15:11:55.664Z,27.90
2018-07-22T15:14:23.206Z,28.00
2018-07-22T15:16:51.023Z,28.10
2018-07-22T15:19:18.466Z,28.20
2018-07-22T15:21:45.928Z,28.20
2018-07-22T15:24:13.364Z,28.30
2018-07-22T15:26:48.213Z,28.40
2018-07-22T15:29:15.770Z,28.50
2018-07-22T15:31:43.151Z,28.50
2018-07-22T15:34:10.638Z,28.50
2018-07-22T15:36:38.172Z,28.00
2018-07-22T15:39:08.033Z,27.70
2018-07-22T15:41:35.492Z,27.70
2018-07-22T15:44:03.014Z,27.70
2018-07-22T15:46:30.487Z,27.90
2018-07-22T15:48:57.953Z,27.70
2018-07-22T15:58:11.590Z,27.50
2018-07-22T16:00:39.089Z,27.70
2018-07-22T16:03:06.602Z,28.00
2018-07-22T16:05:34.024Z,27.90
2018-07-22T16:08:01.516Z,27.40
2018-07-22T16:10:28.952Z,27.50
2018-07-22T16:12:56.398Z,27.80
2018-07-22T16:15:23.927Z,27.90
2018-07-22T16:17:51.437Z,27.50
2018-07-22T16:20:18.972Z,27.50
2018-07-22T16:22:46.499Z,27.40
2018-07-22T16:25:14.168Z,27.20
2018-07-22T16:27:41.765Z,27.00
2018-07-22T16:30:09.277Z,26.60
2018-07-22T16:32:36.748Z,26.70
2018-07-22T16:35:04.232Z,27.20
2018-07-22T16:37:31.663Z,27.50
2018-07-22T16:39:59.151Z,27.60
2018-07-22T16:42:26.689Z,27.90
2018-07-22T16:44:54.141Z,28.00
2018-07-22T16:47:21.604Z,28.10
2018-07-22T16:49:49.116Z,27.30
2018-07-22T16:52:16.740Z,26.90
2018-07-22T16:54:44.376Z,26.80
2018-07-22T16:57:12.354Z,27.00
2018-07-22T16:59:40.083Z,27.40
2018-07-22T17:02:07.650Z,26.60
2018-07-22T17:04:35.351Z,26.00
2018-07-22T17:07:02.912Z,26.50
2018-07-22T17:09:30.433Z,26.40
2018-07-22T17:11:57.951Z,26.70
2018-07-22T17:14:25.390Z,27.20
2018-07-22T17:16:53.022Z,27.50
2018-07-22T17:19:20.557Z,27.80
2018-07-22T17:21:48.052Z,27.90
2018-07-22T17:24:15.516Z,27.70
2018-07-22T17:26:43.170Z,27.60
2018-07-22T17:29:10.902Z,27.40
2018-07-22T17:31:38.594Z,27.10
2018-07-22T17:34:06.108Z,26.90
2018-07-22T17:36:33.658Z,26.90
2018-07-22T17:39:01.508Z,27.40
2018-07-22T17:41:29.114Z,27.50
2018-07-22T17:46:24.937Z,27.70
2018-07-22T17:48:52.613Z,27.90
2018-07-22T17:51:20.250Z,27.90
2018-07-22T17:53:47.885Z,27.60
2018-07-22T17:56:15.493Z,27.60
2018-07-22T17:58:43.287Z,27.50
2018-07-22T18:01:11.279Z,27.60
2018-07-22T18:03:38.913Z,27.50
2018-07-22T18:06:06.660Z,27.50
2018-07-22T18:08:34.671Z,27.60
2018-07-22T18:11:02.566Z,26.60
2018-07-22T18:13:30.160Z,26.30
2018-07-22T18:15:57.784Z,27.00
2018-07-22T18:18:25.273Z,27.10
2018-07-22T18:20:52.763Z,26.00
2018-07-22T18:23:20.216Z,25.90
2018-07-22T18:25:47.707Z,26.50
2018-07-22T18:28:15.908Z,26.30
2018-07-22T18:30:43.905Z,26.90
2018-07-22T18:33:11.412Z,27.20
2018-07-22T18:35:39.045Z,27.30
2018-07-22T18:38:06.895Z,27.10
2018-07-22T18:43:02.443Z,26.00
2018-07-22T18:45:30.324Z,25.30
2018-07-22T18:47:58.231Z,25.20
2018-07-22T18:50:25.990Z,24.90
2018-07-22T18:52:53.827Z,24.90
2018-07-22T18:55:21.777Z,24.70
2018-07-22T18:57:49.993Z,25.10
2018-07-22T19:00:18.053Z,25.40
2018-07-22T19:02:46.020Z,25.60
2018-07-22T19:05:14.119Z,25.70
2018-07-22T19:07:45.606Z,25.60
2018-07-22T19:10:13.803Z,25.70
2018-07-22T19:12:41.834Z,25.30
2018-07-22T19:15:09.649Z,25.10
2018-07-22T19:17:37.453Z,25.00
2018-07-22T19:20:05.352Z,24.80
2018-07-22T19:22:33.387Z,24.40
2018-07-22T19:25:01.203Z,24.70
2018-07-22T19:27:29.208Z,24.70
2018-07-22T19:29:57.157Z,24.60
2018-07-22T19:32:25.126Z,24.40
2018-07-22T19:34:53.000Z,24.40
2018-07-22T19:37:20.845Z,24.20
2018-07-22T19:39:48.668Z,24.00
2018-07-22T19:42:16.522Z,24.00
2018-07-22T19:44:44.584Z,24.10
2018-07-22T19:47:12.454Z,23.60
2018-07-22T19:49:40.276Z,23.10
2018-07-22T19:52:08.154Z,22.60
2018-07-22T19:54:35.972Z,22.60
2018-07-22T19:57:03.799Z,22.90
2018-07-22T19:59:31.681Z,23.00
2018-07-22T20:01:59.518Z,23.20
2018-07-22T20:04:27.347Z,22.60
2018-07-22T20:06:55.221Z,22.40
2018-07-22T20:09:23.119Z,22.20
2018-07-22T20:11:50.987Z,21.60
2018-07-22T20:16:46.705Z,21.50
2018-07-22T20:19:14.584Z,21.50
2018-07-22T20:21:42.444Z,21.50
2018-07-22T20:24:10.356Z,21.70
2018-07-22T20:26:38.062Z,22.10
2018-07-22T20:29:05.827Z,22.00
2018-07-22T20:31:33.737Z,21.90
2018-07-22T20:36:28.858Z,21.50
2018-07-22T20:38:57.312Z,21.70
2018-07-22T20:41:24.903Z,21.70
2018-07-22T20:43:52.530Z,21.50
2018-07-22T20:46:20.072Z,21.50
2018-07-22T20:48:47.667Z,21.70
2018-07-22T20:53:42.645Z,21.70
2018-07-22T20:58:37.940Z,21.60
2018-07-22T21:01:06.028Z,21.50
2018-07-22T21:03:33.732Z,21.50
2018-07-22T21:06:01.341Z,21.60
2018-07-22T21:08:28.902Z,21.60
2018-07-22T21:10:57.195Z,21.70
2018-07-22T21:13:26.183Z,21.70
2018-07-22T21:15:53.867Z,21.80
2018-07-22T21:18:21.735Z,21.70
2018-07-22T21:20:49.381Z,22.00
2018-07-22T21:23:16.892Z,22.10
2018-07-22T21:25:44.476Z,22.20
2018-07-22T21:28:12.043Z,22.30
2018-07-22T21:30:39.619Z,22.10
2018-07-22T21:33:07.202Z,22.20
2018-07-22T21:38:02.259Z,22.50
2018-07-22T21:40:29.841Z,22.30
2018-07-22T21:45:24.796Z,22.10
2018-07-22T21:47:52.328Z,22.20
2018-07-22T21:50:20.209Z,22.30
2018-07-22T21:55:15.302Z,21.80
2018-07-22T21:57:42.820Z,21.60
2018-07-22T22:00:21.741Z,21.30
2018-07-22T22:02:49.916Z,21.60
2018-07-22T22:05:17.448Z,21.90
2018-07-22T22:07:45.021Z,22.20
2018-07-22T22:10:13.547Z,22.30
2018-07-22T22:12:41.133Z,21.80
2018-07-22T22:15:15.089Z,21.30
2018-07-22T22:19:12.474Z,21.10
2018-07-22T22:21:40.041Z,21.10
2018-07-22T22:24:07.636Z,20.90
2018-07-22T22:26:35.211Z,20.70
2018-07-22T22:29:02.721Z,20.70
2018-07-22T22:31:30.249Z,20.80
2018-07-22T22:33:57.777Z,20.90
2018-07-22T22:36:25.318Z,21.50
2018-07-22T22:38:52.859Z,21.50
2018-07-22T22:41:20.645Z,21.60
2018-07-22T22:43:48.152Z,21.60
2018-07-22T22:46:15.722Z,21.70
2018-07-22T22:48:43.237Z,21.60
2018-07-22T22:52:40.568Z,21.60
2018-07-22T22:55:08.075Z,21.80
2018-07-22T22:57:35.601Z,21.90
2018-07-22T23:00:03.146Z,21.80
2018-07-22T23:02:33.485Z,22.00
2018-07-22T23:05:00.973Z,21.90
2018-07-22T23:07:28.535Z,21.90
2018-07-22T23:09:56.071Z,21.80
2018-07-22T23:12:23.648Z,21.80
2018-07-22T23:14:51.275Z,21.80
2018-07-22T23:17:18.924Z,21.80
2018-07-22T23:19:46.427Z,21.80
2018-07-22T23:22:13.969Z,22.10
2018-07-22T23:29:36.464Z,22.40
2018-07-22T23:32:04.004Z,22.20
2018-07-22T23:34:31.541Z,22.10
2018-07-22T23:36:59.165Z,21.90
2018-07-22T23:39:26.719Z,21.80
2018-07-22T23:41:54.298Z,22.00
2018-07-22T23:44:21.906Z,22.10
2018-07-22T23:46:49.443Z,22.10
2018-07-22T23:49:16.953Z,22.10
2018-07-22T23:51:44.732Z,21.90
2018-07-22T23:56:39.767Z,21.80
2018-07-22T23:59:07.335Z,22.00
